createdAt,value
2022-10-26T00:00:13.626Z,4.00
2022-10-26T00:02:40.252Z,5.17
2022-10-26T00:05:07.297Z,5.37
2022-10-26T00:07:33.986Z,5.97
2022-10-26T00:10:00.635Z,5.47
2022-10-26T00:12:27.225Z,5.70
2022-10-26T00:14:54.170Z,5.93
2022-10-26T00:17:20.762Z,6.33
2022-10-26T00:19:47.342Z,3.80
2022-10-26T00:22:13.944Z,4.37
2022-10-26T00:24:40.523Z,6.83
2022-10-26T00:27:07.160Z,4.97
2022-10-26T00:29:33.783Z,5.33
2022-10-26T00:32:00.472Z,5.23
2022-10-26T00:34:27.064Z,2.93
2022-10-26T00:36:53.666Z,3.63
2022-10-26T00:39:20.374Z,4.40
2022-10-26T00:41:46.961Z,4.20
2022-10-26T00:44:47.342Z,5.13
2022-10-26T00:47:25.112Z,6.43
2022-10-26T00:49:55.752Z,3.77
2022-10-26T00:52:23.531Z,3.97
2022-10-26T00:54:51.101Z,3.70
2022-10-26T00:57:18.923Z,5.53
2022-10-26T00:59:46.357Z,3.67
2022-10-26T01:02:13.357Z,7.47
2022-10-26T01:04:40.046Z,2.77
2022-10-26T01:07:08.392Z,6.83
2022-10-26T01:09:36.164Z,7.77
2022-10-26T01:12:02.826Z,3.77
2022-10-26T01:14:29.938Z,5.00
2022-10-26T01:17:23.756Z,3.80
2022-10-26T01:20:17.711Z,3.80
2022-10-26T01:23:13.863Z,3.40
2022-10-26T01:26:08.206Z,6.00
2022-10-26T01:29:20.281Z,3.37
2022-10-26T01:32:19.875Z,4.80
2022-10-26T01:35:26.962Z,4.50
2022-10-26T01:37:59.311Z,3.63
2022-10-26T01:40:33.198Z,5.40
2022-10-26T01:43:04.124Z,7.10
2022-10-26T01:45:33.742Z,3.50
2022-10-26T01:48:03.155Z,5.30
2022-10-26T01:50:31.150Z,3.73
2022-10-26T01:52:57.728Z,5.43
2022-10-26T01:55:39.398Z,4.90
2022-10-26T01:58:23.035Z,4.17
2022-10-26T02:01:17.612Z,5.10
2022-10-26T02:03:52.927Z,5.00
2022-10-26T02:06:29.187Z,3.67
2022-10-26T02:09:22.176Z,3.73
2022-10-26T02:11:52.468Z,3.67
2022-10-26T02:14:33.787Z,4.63
2022-10-26T02:17:09.835Z,5.57
2022-10-26T02:19:48.972Z,5.40
2022-10-26T02:22:41.400Z,7.90
2022-10-26T02:25:11.799Z,4.87
2022-10-26T02:27:43.470Z,2.70
2022-10-26T02:30:12.207Z,3.90
2022-10-26T02:32:44.941Z,3.20
2022-10-26T02:35:13.409Z,6.13
2022-10-26T02:37:42.050Z,2.97
2022-10-26T02:40:14.242Z,7.20
2022-10-26T02:42:44.100Z,3.20
2022-10-26T02:45:16.551Z,2.73
2022-10-26T02:47:43.531Z,5.20
2022-10-26T02:50:10.654Z,4.40
2022-10-26T02:53:15.587Z,4.00
2022-10-26T02:55:50.546Z,3.63
2022-10-26T02:58:25.837Z,2.63
2022-10-26T03:00:53.327Z,4.83
2022-10-26T03:03:20.647Z,3.43
2022-10-26T03:05:47.497Z,5.40
2022-10-26T03:08:14.176Z,3.97
2022-10-26T03:10:43.366Z,3.43
2022-10-26T03:13:11.333Z,4.67
2022-10-26T03:15:38.580Z,5.07
2022-10-26T03:18:06.433Z,6.97
2022-10-26T03:20:34.980Z,5.80
2022-10-26T03:23:02.198Z,8.83
2022-10-26T03:25:29.100Z,5.13
2022-10-26T03:28:03.671Z,5.63
2022-10-26T03:30:31.281Z,6.07
2022-10-26T03:32:57.983Z,3.90
2022-10-26T03:35:24.742Z,3.30
2022-10-26T03:37:52.012Z,3.10
2022-10-26T03:40:18.902Z,2.40
2022-10-26T03:42:45.570Z,2.73
2022-10-26T03:45:12.207Z,4.60
2022-10-26T03:47:49.015Z,3.50
2022-10-26T03:50:18.258Z,6.40
2022-10-26T03:52:46.193Z,4.17
2022-10-26T03:55:13.063Z,2.60
2022-10-26T03:57:43.890Z,3.47
2022-10-26T04:00:12.550Z,4.37
2022-10-26T04:02:39.189Z,4.70
2022-10-26T04:05:06.409Z,9.03
2022-10-26T04:07:33.099Z,4.43
2022-10-26T04:09:59.676Z,4.60
2022-10-26T04:12:26.376Z,5.90
2022-10-26T04:14:53.127Z,5.30
2022-10-26T04:17:19.797Z,3.90
2022-10-26T04:19:46.414Z,5.63
2022-10-26T04:22:13.105Z,4.13
2022-10-26T04:24:39.803Z,4.07
2022-10-26T04:27:06.636Z,3.77
2022-10-26T04:29:33.254Z,3.47
2022-10-26T04:31:59.902Z,4.57
2022-10-26T04:34:26.495Z,6.27
2022-10-26T04:36:53.063Z,3.87
2022-10-26T04:39:19.631Z,4.63
2022-10-26T04:41:46.256Z,4.40
2022-10-26T04:44:12.861Z,3.17
2022-10-26T04:46:39.494Z,2.73
2022-10-26T04:49:06.083Z,4.70
2022-10-26T04:51:32.690Z,4.00
2022-10-26T04:53:59.329Z,3.07
2022-10-26T04:56:25.935Z,3.10
2022-10-26T04:58:55.371Z,3.93
2022-10-26T05:01:22.486Z,4.50
2022-10-26T05:03:50.782Z,5.60
2022-10-26T05:06:17.480Z,3.13
2022-10-26T05:08:44.043Z,3.63
2022-10-26T05:11:10.996Z,4.23
2022-10-26T05:13:37.629Z,3.33
2022-10-26T05:16:04.462Z,2.77
2022-10-26T05:18:31.093Z,3.40
2022-10-26T05:20:57.675Z,5.23
2022-10-26T05:23:24.652Z,5.53
2022-10-26T05:25:51.358Z,4.00
2022-10-26T05:28:18.876Z,5.53
2022-10-26T05:30:46.720Z,4.87
2022-10-26T05:33:14.498Z,4.17
2022-10-26T05:35:41.565Z,4.10
2022-10-26T05:38:14.550Z,6.70
2022-10-26T05:40:52.674Z,4.97
2022-10-26T05:43:20.607Z,6.37
2022-10-26T05:45:47.573Z,5.83
2022-10-26T05:48:14.180Z,4.13
2022-10-26T05:50:40.741Z,7.23
2022-10-26T05:53:07.341Z,4.57
2022-10-26T05:55:34.783Z,4.37
2022-10-26T05:58:01.906Z,3.17
2022-10-26T06:00:30.134Z,5.20
2022-10-26T06:03:18.272Z,3.00
2022-10-26T06:06:07.482Z,4.77
2022-10-26T06:08:34.494Z,5.90
2022-10-26T06:11:02.751Z,6.47
2022-10-26T06:13:29.612Z,4.80
2022-10-26T06:16:08.035Z,6.57
2022-10-26T06:18:54.151Z,6.20
2022-10-26T06:21:28.156Z,5.20
2022-10-26T06:24:09.492Z,8.67
2022-10-26T06:27:14.607Z,4.93
2022-10-26T06:30:01.535Z,4.20
2022-10-26T06:32:28.678Z,11.73
2022-10-26T06:35:25.743Z,7.67
2022-10-26T06:37:54.070Z,4.50
2022-10-26T06:40:22.407Z,5.37
2022-10-26T06:42:49.482Z,6.33
2022-10-26T06:45:17.345Z,6.07
2022-10-26T06:48:02.716Z,2.90
2022-10-26T06:50:37.945Z,6.93
2022-10-26T06:53:16.802Z,6.57
2022-10-26T06:55:45.689Z,4.40
2022-10-26T06:58:17.292Z,7.20
2022-10-26T07:00:50.073Z,8.53
2022-10-26T07:03:16.927Z,5.57
2022-10-26T07:05:45.093Z,4.17
2022-10-26T07:08:12.555Z,5.40
2022-10-26T07:10:39.799Z,8.13
2022-10-26T07:13:07.344Z,3.53
2022-10-26T07:15:35.324Z,5.40
2022-10-26T07:18:05.619Z,3.23
2022-10-26T07:20:36.103Z,6.00
2022-10-26T07:23:02.901Z,4.90
2022-10-26T07:25:29.729Z,4.60
2022-10-26T07:27:59.951Z,5.10
2022-10-26T07:30:28.154Z,6.30
2022-10-26T07:33:09.927Z,6.27
2022-10-26T07:35:36.887Z,5.00
2022-10-26T07:38:04.396Z,2.67
2022-10-26T07:40:31.235Z,5.83
2022-10-26T07:42:59.729Z,3.07
2022-10-26T07:45:29.516Z,5.40
2022-10-26T07:47:56.717Z,2.60
2022-10-26T07:50:24.542Z,3.77
2022-10-26T07:52:51.592Z,5.70
2022-10-26T07:55:19.161Z,3.13
2022-10-26T07:57:47.525Z,3.67
2022-10-26T08:00:17.567Z,3.30
2022-10-26T08:02:44.859Z,4.47
2022-10-26T08:05:11.576Z,2.90
2022-10-26T08:07:43.283Z,2.47
2022-10-26T08:10:10.507Z,2.70
2022-10-26T08:12:37.653Z,3.53
2022-10-26T08:15:04.938Z,5.57
2022-10-26T08:17:31.558Z,7.23
2022-10-26T08:19:58.724Z,2.73
2022-10-26T08:22:25.708Z,5.40
2022-10-26T08:24:52.270Z,2.53
2022-10-26T08:27:18.842Z,4.07
2022-10-26T08:29:45.422Z,8.10
2022-10-26T08:32:12.021Z,3.50
2022-10-26T08:34:38.701Z,5.87
2022-10-26T08:37:05.330Z,6.33
2022-10-26T08:39:31.939Z,4.80
2022-10-26T08:42:21.875Z,2.83
2022-10-26T08:44:52.422Z,4.37
2022-10-26T08:47:46.396Z,2.70
2022-10-26T08:50:39.283Z,5.63
2022-10-26T08:53:31.177Z,5.23
2022-10-26T08:56:06.594Z,3.80
2022-10-26T08:58:41.607Z,6.80
2022-10-26T09:01:09.281Z,2.63
2022-10-26T09:03:36.067Z,3.00
2022-10-26T09:06:20.604Z,2.57
2022-10-26T09:09:07.475Z,4.10
2022-10-26T09:11:49.527Z,3.63
2022-10-26T09:14:40.546Z,3.33
2022-10-26T09:17:35.670Z,4.43
2022-10-26T09:20:05.373Z,3.07
2022-10-26T09:23:03.063Z,4.83
2022-10-26T09:25:40.477Z,5.10
2022-10-26T09:28:15.700Z,6.67
2022-10-26T09:30:45.093Z,4.13
2022-10-26T09:33:19.718Z,2.90
2022-10-26T09:36:04.981Z,4.10
2022-10-26T09:38:32.916Z,9.07
2022-10-26T09:41:25.247Z,4.40
2022-10-26T09:44:25.931Z,3.30
2022-10-26T09:47:25.102Z,4.43
2022-10-26T09:50:15.140Z,4.83
2022-10-26T09:52:41.795Z,2.60
2022-10-26T09:55:12.148Z,3.47
2022-10-26T09:57:42.734Z,3.93
2022-10-26T10:00:16.758Z,2.50
2022-10-26T10:02:52.590Z,7.17
2022-10-26T10:05:50.147Z,2.73
2022-10-26T10:08:25.405Z,4.23
2022-10-26T10:11:04.011Z,3.87
2022-10-26T10:13:36.872Z,4.40
2022-10-26T10:16:08.235Z,5.67
2022-10-26T10:18:36.218Z,5.63
2022-10-26T10:21:05.069Z,5.53
2022-10-26T10:23:49.400Z,3.80
2022-10-26T10:26:16.128Z,6.50
2022-10-26T10:28:43.602Z,5.67
2022-10-26T10:31:21.805Z,4.47
2022-10-26T10:33:49.363Z,4.80
2022-10-26T10:36:19.995Z,5.97
2022-10-26T10:38:48.878Z,5.87
2022-10-26T10:41:28.131Z,6.30
2022-10-26T10:44:22.558Z,7.10
2022-10-26T10:46:49.295Z,2.30
2022-10-26T10:49:23.196Z,3.57
2022-10-26T10:51:50.094Z,3.53
2022-10-26T10:54:38.903Z,3.63
2022-10-26T10:57:15.448Z,5.60
2022-10-26T11:00:20.442Z,5.17
2022-10-26T11:03:33.006Z,4.00
2022-10-26T11:06:27.426Z,4.97
2022-10-26T11:09:02.315Z,7.70
2022-10-26T11:11:36.188Z,3.20
2022-10-26T11:14:14.803Z,7.03
2022-10-26T11:16:47.126Z,4.87
2022-10-26T11:19:24.567Z,4.47
2022-10-26T11:21:55.943Z,5.30
2022-10-26T11:24:34.482Z,5.60
2022-10-26T11:27:17.215Z,9.40
2022-10-26T11:30:10.116Z,5.63
2022-10-26T11:32:51.102Z,4.33
2022-10-26T11:35:32.674Z,4.10
2022-10-26T11:38:10.191Z,4.20
2022-10-26T11:40:54.619Z,5.63
2022-10-26T11:43:39.862Z,3.33
2022-10-26T11:46:06.510Z,6.90
2022-10-26T11:48:58.753Z,7.97
2022-10-26T11:51:46.813Z,7.83
2022-10-26T11:56:55.810Z,5.43
2022-10-26T11:59:29.218Z,6.07
2022-10-26T12:02:05.848Z,3.10
2022-10-26T12:04:36.381Z,8.90
2022-10-26T12:07:09.517Z,4.27
2022-10-26T12:09:40.768Z,8.60
2022-10-26T12:12:35.143Z,6.07
2022-10-26T12:18:54.981Z,4.53
2022-10-26T12:21:27.366Z,4.17
2022-10-26T12:23:55.273Z,9.10
2022-10-26T12:26:24.950Z,7.07
2022-10-26T12:29:25.121Z,3.27
2022-10-26T12:31:51.735Z,7.03
2022-10-26T12:34:31.728Z,5.77
2022-10-26T12:36:58.348Z,6.23
2022-10-26T12:39:34.343Z,4.60
2022-10-26T12:42:26.609Z,6.70
2022-10-26T12:44:53.394Z,4.40
2022-10-26T12:47:28.791Z,3.87
2022-10-26T12:50:07.258Z,4.67
2022-10-26T12:52:40.125Z,5.10
2022-10-26T12:55:12.533Z,7.53
2022-10-26T12:58:08.588Z,6.33
2022-10-26T13:00:41.661Z,5.97
2022-10-26T13:03:14.631Z,3.53
2022-10-26T13:06:17.182Z,6.93
2022-10-26T13:08:58.553Z,8.07
2022-10-26T13:11:32.449Z,5.13
2022-10-26T13:14:02.618Z,7.03
2022-10-26T13:16:30.069Z,6.20
2022-10-26T13:18:57.937Z,7.07
2022-10-26T13:21:26.296Z,4.40
2022-10-26T13:23:57.493Z,5.77
2022-10-26T13:26:26.524Z,5.30
2022-10-26T13:28:57.225Z,8.03
2022-10-26T13:31:32.681Z,6.30
2022-10-26T13:34:18.096Z,5.23
2022-10-26T13:37:10.484Z,4.83
2022-10-26T13:43:15.703Z,5.30
2022-10-26T13:46:26.457Z,5.73
2022-10-26T13:49:28.944Z,8.27
2022-10-26T13:51:56.973Z,4.43
2022-10-26T13:54:49.752Z,8.07
2022-10-26T13:57:35.361Z,5.47
2022-10-26T14:00:09.641Z,6.87
2022-10-26T14:02:42.939Z,3.90
2022-10-26T14:05:13.308Z,6.57
2022-10-26T14:07:55.896Z,5.37
2022-10-26T14:10:45.424Z,4.13
2022-10-26T14:13:19.395Z,11.30
2022-10-26T14:15:46.703Z,8.07
2022-10-26T14:18:20.040Z,4.00
2022-10-26T14:21:17.324Z,7.77
2022-10-26T14:23:58.769Z,5.37
2022-10-26T14:26:31.330Z,8.60
2022-10-26T14:29:00.918Z,6.53
2022-10-26T14:31:27.556Z,7.00
2022-10-26T14:33:55.827Z,5.90
2022-10-26T14:36:28.015Z,4.90
2022-10-26T14:38:59.299Z,8.17
2022-10-26T14:41:27.354Z,5.17
2022-10-26T14:43:57.175Z,6.03
2022-10-26T14:46:24.112Z,4.33
2022-10-26T14:48:52.593Z,8.33
2022-10-26T14:51:21.824Z,9.17
2022-10-26T14:53:51.276Z,10.97
2022-10-26T14:56:28.604Z,7.17
2022-10-26T14:58:56.511Z,6.60
2022-10-26T15:01:23.290Z,12.43
2022-10-26T15:03:55.360Z,9.43
2022-10-26T15:06:43.920Z,8.77
2022-10-26T15:09:38.723Z,9.27
2022-10-26T15:12:06.201Z,6.03
2022-10-26T15:14:34.434Z,5.40
2022-10-26T15:17:01.337Z,9.13
2022-10-26T15:19:28.524Z,6.30
2022-10-26T15:21:55.752Z,7.20
2022-10-26T15:24:25.067Z,4.33
2022-10-26T15:26:52.281Z,6.63
2022-10-26T15:29:36.036Z,7.87
2022-10-26T15:34:32.632Z,7.50
2022-10-26T15:36:59.283Z,11.03
2022-10-26T15:39:26.601Z,11.13
2022-10-26T15:41:53.571Z,5.47
2022-10-26T15:44:21.910Z,6.07
2022-10-26T15:46:50.009Z,5.97
2022-10-26T15:49:21.166Z,5.13
2022-10-26T15:51:49.068Z,8.63
2022-10-26T15:54:15.997Z,5.93
2022-10-26T15:56:45.948Z,12.50
2022-10-26T15:59:18.742Z,9.93
2022-10-26T16:01:45.823Z,14.90
2022-10-26T16:04:12.698Z,10.57
2022-10-26T16:06:41.278Z,6.00
2022-10-26T16:09:13.645Z,10.00
2022-10-26T16:11:40.280Z,7.33
2022-10-26T16:14:07.073Z,9.40
2022-10-26T16:16:33.705Z,8.80
2022-10-26T16:21:50.234Z,4.47
2022-10-26T16:24:16.899Z,8.10
2022-10-26T16:26:55.967Z,7.33
2022-10-26T16:29:22.768Z,5.73
2022-10-26T16:31:49.406Z,8.00
2022-10-26T16:34:16.103Z,10.20
2022-10-26T16:36:42.728Z,8.60
2022-10-26T16:39:11.812Z,6.77
2022-10-26T16:41:38.471Z,12.13
2022-10-26T16:44:05.150Z,11.50
2022-10-26T16:46:31.781Z,10.77
2022-10-26T16:48:59.736Z,12.20
2022-10-26T16:51:28.049Z,11.83
2022-10-26T16:53:56.484Z,10.90
2022-10-26T16:56:26.639Z,13.50
2022-10-26T16:58:53.533Z,12.17
2022-10-26T17:01:21.097Z,10.57
2022-10-26T17:03:49.871Z,9.00
2022-10-26T17:06:17.637Z,12.50
2022-10-26T17:08:44.656Z,11.90
2022-10-26T17:11:17.162Z,9.00
2022-10-26T17:13:44.554Z,8.50
2022-10-26T17:16:13.034Z,6.90
2022-10-26T17:18:40.973Z,7.50
2022-10-26T17:21:09.124Z,8.30
2022-10-26T17:23:36.099Z,12.70
2022-10-26T17:26:05.121Z,10.00
2022-10-26T17:28:32.476Z,11.20
2022-10-26T17:31:04.433Z,10.10
2022-10-26T17:33:35.587Z,11.50
2022-10-26T17:36:03.316Z,11.60
2022-10-26T17:38:33.611Z,9.33
2022-10-26T17:41:05.236Z,8.23
2022-10-26T17:43:33.145Z,9.20
2022-10-26T17:46:01.673Z,13.80
2022-10-26T17:48:31.427Z,12.03
2022-10-26T17:50:59.201Z,8.27
2022-10-26T17:53:26.115Z,10.47
2022-10-26T17:56:03.864Z,6.53
2022-10-26T17:58:31.458Z,8.87
2022-10-26T18:01:03.195Z,8.83
2022-10-26T18:03:29.903Z,8.93
2022-10-26T18:05:56.666Z,9.93
2022-10-26T18:08:23.304Z,10.37
2022-10-26T18:10:51.484Z,7.30
2022-10-26T18:13:18.794Z,6.63
2022-10-26T18:15:45.862Z,9.87
2022-10-26T18:18:12.941Z,9.43
2022-10-26T18:20:39.667Z,8.47
2022-10-26T18:23:06.379Z,9.50
2022-10-26T18:25:33.736Z,10.00
2022-10-26T18:28:00.331Z,9.27
2022-10-26T18:30:27.140Z,8.03
2022-10-26T18:32:54.224Z,9.80
2022-10-26T18:35:21.587Z,11.50
2022-10-26T18:37:48.423Z,10.97
2022-10-26T18:40:15.413Z,11.03
2022-10-26T18:42:42.415Z,14.03
2022-10-26T18:45:09.287Z,14.73
2022-10-26T18:47:35.952Z,9.50
2022-10-26T18:50:02.545Z,11.57
2022-10-26T18:52:29.878Z,8.67
2022-10-26T18:54:56.810Z,10.53
2022-10-26T18:57:28.377Z,10.33
2022-10-26T18:59:55.337Z,12.07
2022-10-26T19:02:22.869Z,13.33
2022-10-26T19:04:51.523Z,16.20
2022-10-26T19:07:18.139Z,13.57
2022-10-26T19:09:44.767Z,10.23
2022-10-26T19:12:11.387Z,10.83
2022-10-26T19:14:37.992Z,6.97
2022-10-26T19:17:04.632Z,9.77
2022-10-26T19:19:31.244Z,13.10
2022-10-26T19:22:00.023Z,14.23
2022-10-26T19:24:26.671Z,9.73
2022-10-26T19:26:54.008Z,12.80
2022-10-26T19:29:20.702Z,8.57
2022-10-26T19:31:50.835Z,10.30
2022-10-26T19:34:17.847Z,13.43
2022-10-26T19:36:46.169Z,13.27
2022-10-26T19:39:17.137Z,11.13
2022-10-26T19:41:44.801Z,11.17
2022-10-26T19:44:12.282Z,10.60
2022-10-26T19:46:39.866Z,14.93
2022-10-26T19:49:06.960Z,11.93
2022-10-26T19:51:33.842Z,10.43
2022-10-26T19:54:03.861Z,15.47
2022-10-26T19:56:31.375Z,16.20
2022-10-26T19:58:58.115Z,12.27
2022-10-26T20:01:25.033Z,10.57
2022-10-26T20:03:51.806Z,8.90
2022-10-26T20:06:18.658Z,14.33
2022-10-26T20:08:47.740Z,9.40
2022-10-26T20:11:17.009Z,10.93
2022-10-26T20:13:44.945Z,14.27
2022-10-26T20:16:12.929Z,13.07
2022-10-26T20:18:43.980Z,10.53
2022-10-26T20:21:14.861Z,10.83
2022-10-26T20:23:42.406Z,11.97
2022-10-26T20:26:09.226Z,11.97
2022-10-26T20:28:35.898Z,13.37
2022-10-26T20:31:02.575Z,10.80
2022-10-26T20:33:29.196Z,9.50
2022-10-26T20:35:57.559Z,11.20
2022-10-26T20:38:24.613Z,12.23
2022-10-26T20:40:58.991Z,11.63
2022-10-26T20:43:27.102Z,8.93
2022-10-26T20:45:54.606Z,12.33
2022-10-26T20:48:22.077Z,10.50
2022-10-26T20:51:04.869Z,12.23
2022-10-26T20:53:43.246Z,11.33
2022-10-26T20:56:25.975Z,10.70
2022-10-26T20:58:57.739Z,11.17
2022-10-26T21:01:31.848Z,12.23
2022-10-26T21:04:00.597Z,15.40
2022-10-26T21:06:27.779Z,11.43
2022-10-26T21:08:56.336Z,16.03
2022-10-26T21:11:24.715Z,12.53
2022-10-26T21:13:53.505Z,12.80
2022-10-26T21:18:51.877Z,15.57
2022-10-26T21:21:18.496Z,13.23
2022-10-26T21:23:45.084Z,15.70
2022-10-26T21:26:11.723Z,13.33
2022-10-26T21:28:45.623Z,12.17
2022-10-26T21:31:14.691Z,11.00
2022-10-26T21:33:41.744Z,11.73
2022-10-26T21:36:12.019Z,11.47
2022-10-26T21:38:39.219Z,12.20
2022-10-26T21:41:12.890Z,10.70
2022-10-26T21:43:41.609Z,13.07
2022-10-26T21:46:09.256Z,11.13
2022-10-26T21:48:36.163Z,13.80
2022-10-26T21:51:04.732Z,11.97
2022-10-26T21:53:31.631Z,10.20
2022-10-26T21:56:10.940Z,8.73
2022-10-26T21:58:37.848Z,9.47
2022-10-26T22:01:08.474Z,11.10
2022-10-26T22:03:35.631Z,9.77
2022-10-26T22:06:03.007Z,9.13
2022-10-26T22:08:30.144Z,13.23
2022-10-26T22:10:57.394Z,12.00
2022-10-26T22:13:24.483Z,9.70
2022-10-26T22:16:05.590Z,12.13
2022-10-26T22:18:35.828Z,9.77
2022-10-26T22:21:03.491Z,12.10
2022-10-26T22:23:34.354Z,10.27
2022-10-26T22:26:03.001Z,14.10
2022-10-26T22:28:32.118Z,11.20
2022-10-26T22:31:04.662Z,14.13
2022-10-26T22:33:31.893Z,11.73
2022-10-26T22:36:07.119Z,9.23
2022-10-26T22:38:33.971Z,12.83
2022-10-26T22:41:00.746Z,12.23
2022-10-26T22:43:27.503Z,12.27
2022-10-26T22:46:08.689Z,11.93
2022-10-26T22:48:35.744Z,13.83
2022-10-26T22:51:10.210Z,13.03
2022-10-26T22:53:37.582Z,11.67
2022-10-26T22:56:05.949Z,8.23
2022-10-26T22:58:32.600Z,8.60
2022-10-26T23:01:03.983Z,12.57
2022-10-26T23:03:30.664Z,7.77
2022-10-26T23:05:57.897Z,9.00
2022-10-26T23:08:24.680Z,8.57
2022-10-26T23:10:51.767Z,12.20
2022-10-26T23:13:18.352Z,6.67
2022-10-26T23:15:45.089Z,8.67
2022-10-26T23:18:11.695Z,7.47
2022-10-26T23:20:38.554Z,6.20
2022-10-26T23:23:05.131Z,8.13
2022-10-26T23:25:31.719Z,7.73
2022-10-26T23:27:58.289Z,8.23
2022-10-26T23:30:24.941Z,7.83
2022-10-26T23:32:51.809Z,8.10
2022-10-26T23:35:18.787Z,7.00
2022-10-26T23:37:45.425Z,7.00
2022-10-26T23:40:12.386Z,7.00
2022-10-26T23:42:38.996Z,5.90
2022-10-26T23:45:05.979Z,6.30
2022-10-26T23:47:32.577Z,6.97
2022-10-26T23:49:59.199Z,5.77
2022-10-26T23:52:25.836Z,6.00
2022-10-26T23:54:52.440Z,7.70
2022-10-26T23:57:19.089Z,7.67
2022-10-26T23:59:45.753Z,7.60
